createdAt,value
2023-04-03T00:00:41.075Z,1003.98
2023-04-03T00:01:41.131Z,1003.95
2023-04-03T00:02:41.253Z,1003.89
2023-04-03T00:03:41.058Z,1003.93
2023-04-03T00:04:41.201Z,1003.97
2023-04-03T00:05:41.030Z,1004.05
2023-04-03T00:06:41.006Z,1004.11
2023-04-03T00:07:40.995Z,1004.01
2023-04-03T00:08:40.978Z,1004.04
2023-04-03T00:09:40.972Z,1004.08
2023-04-03T00:10:40.969Z,1004.10
2023-04-03T00:11:40.952Z,1004.12
2023-04-03T00:12:40.941Z,1004.07
2023-04-03T00:13:40.956Z,1004.12
2023-04-03T00:14:40.918Z,1004.03
2023-04-03T00:15:40.931Z,1004.20
2023-04-03T00:16:40.950Z,1004.13
2023-04-03T00:17:40.922Z,1004.09
2023-04-03T00:18:40.882Z,1004.07
2023-04-03T00:19:40.866Z,1004.09
2023-04-03T00:20:40.863Z,1004.09
2023-04-03T00:21:40.858Z,1004.17
2023-04-03T00:22:40.839Z,1004.14
2023-04-03T00:23:40.828Z,1004.17
2023-04-03T00:24:40.813Z,1004.11
2023-04-03T00:25:40.810Z,1004.13
2023-04-03T00:26:40.802Z,1004.07
2023-04-03T00:27:40.784Z,1004.23
2023-04-03T00:28:40.771Z,1004.17
2023-04-03T00:29:40.774Z,1004.16
2023-04-03T00:30:40.855Z,1004.15
2023-04-03T00:31:40.750Z,1004.22
2023-04-03T00:32:40.766Z,1004.18
2023-04-03T00:33:40.721Z,1004.20
2023-04-03T00:34:40.710Z,1004.20
2023-04-03T00:35:40.789Z,1004.31
2023-04-03T00:36:40.747Z,1004.32
2023-04-03T00:37:40.679Z,1004.16
2023-04-03T00:38:40.717Z,1004.16
2023-04-03T00:39:40.656Z,1004.17
2023-04-03T00:40:40.665Z,1004.21
2023-04-03T00:41:40.645Z,1004.19
2023-04-03T00:42:40.621Z,1004.22
2023-04-03T00:43:40.615Z,1004.16
2023-04-03T00:44:40.603Z,1004.14
2023-04-03T00:45:40.591Z,1004.19
2023-04-03T00:46:40.697Z,1004.17
2023-04-03T00:47:40.575Z,1004.14
2023-04-03T00:48:40.557Z,1004.28
2023-04-03T00:49:40.552Z,1004.10
2023-04-03T00:50:40.531Z,1004.26
2023-04-03T00:51:40.541Z,1004.21
2023-04-03T00:52:40.517Z,1004.21
2023-04-03T00:53:40.510Z,1004.17
2023-04-03T00:54:40.489Z,1004.22
2023-04-03T00:55:40.495Z,1004.18
2023-04-03T00:56:40.481Z,1004.22
2023-04-03T00:57:40.461Z,1004.22
2023-04-03T00:58:40.450Z,1004.15
2023-04-03T00:59:40.441Z,1004.10
2023-04-03T01:00:40.423Z,1004.16
2023-04-03T01:01:40.477Z,1004.14
2023-04-03T01:02:40.433Z,1004.12
2023-04-03T01:03:40.417Z,1004.12
2023-04-03T01:04:40.530Z,1004.14
2023-04-03T01:05:40.382Z,1004.16
2023-04-03T01:06:40.382Z,1004.14
2023-04-03T01:07:40.365Z,1004.24
2023-04-03T01:08:40.344Z,1004.20
2023-04-03T01:09:40.335Z,1004.14
2023-04-03T01:10:40.327Z,1004.18
2023-04-03T01:11:40.329Z,1004.30
2023-04-03T01:12:40.302Z,1004.25
2023-04-03T01:13:41.296Z,1004.17
2023-04-03T01:14:40.296Z,1004.31
2023-04-03T01:15:40.295Z,1004.29
2023-04-03T01:16:40.274Z,1004.32
2023-04-03T01:17:40.303Z,1004.23
2023-04-03T01:18:40.240Z,1004.22
2023-04-03T01:19:40.231Z,1004.28
2023-04-03T01:20:40.307Z,1004.27
2023-04-03T01:21:40.233Z,1004.21
2023-04-03T01:22:40.199Z,1004.30
2023-04-03T01:23:40.197Z,1004.18
2023-04-03T01:24:40.290Z,1004.22
2023-04-03T01:25:40.174Z,1004.25
2023-04-03T01:26:40.163Z,1004.23
2023-04-03T01:27:40.146Z,1004.19
2023-04-03T01:28:40.141Z,1004.32
2023-04-03T01:29:40.145Z,1004.28
2023-04-03T01:30:40.115Z,1004.24
2023-04-03T01:31:40.156Z,1004.24
2023-04-03T01:32:40.147Z,1004.36
2023-04-03T01:33:40.099Z,1004.26
2023-04-03T01:34:40.088Z,1004.25
2023-04-03T01:35:40.099Z,1004.26
2023-04-03T01:36:40.064Z,1004.22
2023-04-03T01:37:40.048Z,1004.28
2023-04-03T01:38:40.034Z,1004.23
2023-04-03T01:39:40.023Z,1004.22
2023-04-03T01:40:40.011Z,1004.29
2023-04-03T01:41:40.014Z,1004.28
2023-04-03T01:42:39.997Z,1004.28
2023-04-03T01:43:39.985Z,1004.30
2023-04-03T01:44:39.992Z,1004.42
2023-04-03T01:45:40.003Z,1004.40
2023-04-03T01:46:39.952Z,1004.36
2023-04-03T01:47:40.009Z,1004.50
2023-04-03T01:48:39.928Z,1004.39
2023-04-03T01:49:39.910Z,1004.52
2023-04-03T01:50:39.906Z,1004.39
2023-04-03T01:51:39.900Z,1004.37
2023-04-03T01:52:39.885Z,1004.37
2023-04-03T01:53:39.865Z,1004.35
2023-04-03T01:54:39.867Z,1004.39
2023-04-03T01:55:39.847Z,1004.40
2023-04-03T01:56:39.848Z,1004.48
2023-04-03T01:57:39.823Z,1004.44
2023-04-03T01:58:39.819Z,1004.47
2023-04-03T01:59:39.803Z,1004.57
2023-04-03T02:00:39.794Z,1004.50
2023-04-03T02:01:39.861Z,1004.53
2023-04-03T02:02:39.803Z,1004.60
2023-04-03T02:03:39.778Z,1004.52
2023-04-03T02:04:39.755Z,1004.58
2023-04-03T02:05:39.736Z,1004.54
2023-04-03T02:06:39.745Z,1004.52
2023-04-03T02:07:39.729Z,1004.64
2023-04-03T02:08:39.720Z,1004.55
2023-04-03T02:09:39.694Z,1004.60
2023-04-03T02:10:39.689Z,1004.60
2023-04-03T02:11:39.672Z,1004.51
2023-04-03T02:12:39.673Z,1004.50
2023-04-03T02:13:39.647Z,1004.51
2023-04-03T02:14:39.645Z,1004.55
2023-04-03T02:15:39.629Z,1004.61
2023-04-03T02:16:39.683Z,1004.60
2023-04-03T02:17:39.642Z,1004.52
2023-04-03T02:18:39.601Z,1004.55
2023-04-03T02:19:39.581Z,1004.59
2023-04-03T02:20:39.791Z,1004.63
2023-04-03T02:21:39.558Z,1004.60
2023-04-03T02:22:39.563Z,1004.65
2023-04-03T02:23:39.537Z,1004.57
2023-04-03T02:24:39.530Z,1004.64
2023-04-03T02:25:39.515Z,1004.52
2023-04-03T02:26:39.504Z,1004.67
2023-04-03T02:27:39.503Z,1004.65
2023-04-03T02:28:39.482Z,1004.54
2023-04-03T02:29:39.473Z,1004.65
2023-04-03T02:30:39.978Z,1004.66
2023-04-03T02:31:39.452Z,1004.55
2023-04-03T02:32:39.488Z,1004.64
2023-04-03T02:33:39.427Z,1004.62
2023-04-03T02:34:39.420Z,1004.61
2023-04-03T02:35:39.452Z,1004.72
2023-04-03T02:36:39.398Z,1004.62
2023-04-03T02:37:39.394Z,1004.65
2023-04-03T02:38:39.377Z,1004.60
2023-04-03T02:39:39.362Z,1004.65
2023-04-03T02:40:39.554Z,1004.69
2023-04-03T02:41:39.359Z,1004.73
2023-04-03T02:42:39.348Z,1004.63
2023-04-03T02:43:39.326Z,1004.67
2023-04-03T02:44:39.314Z,1004.62
2023-04-03T02:45:39.303Z,1004.61
2023-04-03T02:46:39.299Z,1004.69
2023-04-03T02:47:39.324Z,1004.77
2023-04-03T02:48:39.275Z,1004.75
2023-04-03T02:49:39.267Z,1004.69
2023-04-03T02:50:39.264Z,1004.73
2023-04-03T02:51:39.248Z,1004.73
2023-04-03T02:52:39.247Z,1004.68
2023-04-03T02:53:39.224Z,1004.77
2023-04-03T02:54:39.216Z,1004.77
2023-04-03T02:55:39.208Z,1004.71
2023-04-03T02:56:39.213Z,1004.75
2023-04-03T02:57:39.188Z,1004.74
2023-04-03T02:58:39.168Z,1004.72
2023-04-03T02:59:39.160Z,1004.80
2023-04-03T03:00:39.429Z,1004.77
2023-04-03T03:01:39.285Z,1004.77
2023-04-03T03:02:39.199Z,1004.72
2023-04-03T03:03:39.113Z,1004.70
2023-04-03T03:04:39.130Z,1004.71
2023-04-03T03:05:39.089Z,1004.78
2023-04-03T03:06:39.081Z,1004.78
2023-04-03T03:07:39.086Z,1004.71
2023-04-03T03:08:39.070Z,1004.76
2023-04-03T03:09:39.045Z,1004.75
2023-04-03T03:10:39.280Z,1004.71
2023-04-03T03:11:39.035Z,1004.75
2023-04-03T03:12:39.044Z,1004.71
2023-04-03T03:13:39.044Z,1004.78
2023-04-03T03:14:39.033Z,1004.75
2023-04-03T03:15:39.039Z,1004.73
2023-04-03T03:16:38.983Z,1004.68
2023-04-03T03:17:39.049Z,1004.67
2023-04-03T03:18:38.955Z,1004.64
2023-04-03T03:19:38.957Z,1004.70
2023-04-03T03:20:39.020Z,1004.67
2023-04-03T03:21:38.952Z,1004.73
2023-04-03T03:22:39.023Z,1004.79
2023-04-03T03:23:38.902Z,1004.75
2023-04-03T03:24:38.895Z,1004.67
2023-04-03T03:25:39.082Z,1004.72
2023-04-03T03:26:38.875Z,1004.65
2023-04-03T03:27:38.876Z,1004.76
2023-04-03T03:28:38.861Z,1004.69
2023-04-03T03:29:38.845Z,1004.63
2023-04-03T03:30:38.844Z,1004.65
2023-04-03T03:31:40.030Z,1004.67
2023-04-03T03:32:40.001Z,1004.61
2023-04-03T03:33:39.929Z,1004.62
2023-04-03T03:34:39.917Z,1004.56
2023-04-03T03:35:40.198Z,1004.71
2023-04-03T03:36:39.899Z,1004.55
2023-04-03T03:37:39.908Z,1004.63
2023-04-03T03:38:39.873Z,1004.58
2023-04-03T03:39:39.860Z,1004.70
2023-04-03T03:40:39.859Z,1004.66
2023-04-03T03:41:39.834Z,1004.72
2023-04-03T03:42:39.842Z,1004.69
2023-04-03T03:43:39.824Z,1004.70
2023-04-03T03:44:39.816Z,1004.70
2023-04-03T03:45:39.840Z,1004.71
2023-04-03T03:46:39.821Z,1004.73
2023-04-03T03:47:39.830Z,1004.69
2023-04-03T03:48:39.774Z,1004.74
2023-04-03T03:49:39.788Z,1004.76
2023-04-03T03:50:39.766Z,1004.70
2023-04-03T03:51:39.744Z,1004.76
2023-04-03T03:52:39.746Z,1004.76
2023-04-03T03:53:39.729Z,1004.72
2023-04-03T03:54:39.725Z,1004.78
2023-04-03T03:55:39.932Z,1004.68
2023-04-03T03:56:39.699Z,1004.67
2023-04-03T03:57:39.701Z,1004.65
2023-04-03T03:58:39.676Z,1004.70
2023-04-03T03:59:39.664Z,1004.76
2023-04-03T04:00:39.657Z,1004.73
2023-04-03T04:01:39.679Z,1004.76
2023-04-03T04:02:39.820Z,1004.84
2023-04-03T04:03:39.787Z,1004.71
2023-04-03T04:04:39.624Z,1004.75
2023-04-03T04:05:40.060Z,1004.78
2023-04-03T04:06:39.614Z,1004.80
2023-04-03T04:07:39.604Z,1004.84
2023-04-03T04:08:39.589Z,1004.79
2023-04-03T04:09:39.584Z,1004.87
2023-04-03T04:10:39.561Z,1004.83
2023-04-03T04:11:39.556Z,1004.79
2023-04-03T04:12:39.551Z,1004.91
2023-04-03T04:13:39.558Z,1004.88
2023-04-03T04:14:39.530Z,1004.87
2023-04-03T04:15:39.839Z,1004.87
2023-04-03T04:16:39.556Z,1004.84
2023-04-03T04:17:39.551Z,1004.90
2023-04-03T04:18:39.492Z,1004.85
2023-04-03T04:19:39.475Z,1004.80
2023-04-03T04:20:39.471Z,1004.85
2023-04-03T04:21:39.456Z,1004.86
2023-04-03T04:22:39.459Z,1004.86
2023-04-03T04:23:39.450Z,1004.84
2023-04-03T04:24:39.930Z,1004.88
2023-04-03T04:25:39.505Z,1004.92
2023-04-03T04:26:39.417Z,1004.95
2023-04-03T04:27:39.410Z,1004.91
2023-04-03T04:28:39.394Z,1004.97
2023-04-03T04:29:39.391Z,1004.89
2023-04-03T04:30:39.415Z,1005.04
2023-04-03T04:31:39.372Z,1004.91
2023-04-03T04:32:39.410Z,1004.94
2023-04-03T04:33:39.348Z,1005.01
2023-04-03T04:34:39.355Z,1004.99
2023-04-03T04:35:39.744Z,1005.08
2023-04-03T04:36:39.487Z,1005.08
2023-04-03T04:37:39.320Z,1005.00
2023-04-03T04:38:39.294Z,1005.04
2023-04-03T04:39:39.288Z,1005.04
2023-04-03T04:40:39.275Z,1005.14
2023-04-03T04:41:39.265Z,1005.07
2023-04-03T04:42:39.271Z,1005.20
2023-04-03T04:43:39.257Z,1005.23
2023-04-03T04:44:39.245Z,1005.13
2023-04-03T04:45:39.579Z,1005.15
2023-04-03T04:46:40.231Z,1005.14
2023-04-03T04:47:39.273Z,1005.12
2023-04-03T04:48:39.203Z,1005.20
2023-04-03T04:49:39.182Z,1005.18
2023-04-03T04:50:39.210Z,1005.17
2023-04-03T04:51:51.059Z,1005.14
2023-04-03T04:52:41.182Z,1005.24
2023-04-03T04:53:39.188Z,1005.19
2023-04-03T04:54:39.150Z,1005.25
2023-04-03T04:55:39.302Z,1005.18
2023-04-03T04:56:39.141Z,1005.18
2023-04-03T04:57:39.239Z,1005.24
2023-04-03T04:58:39.098Z,1005.21
2023-04-03T04:59:39.116Z,1005.18
2023-04-03T05:00:39.117Z,1005.24
2023-04-03T05:01:39.130Z,1005.31
2023-04-03T05:02:39.114Z,1005.21
2023-04-03T05:03:39.065Z,1005.26
2023-04-03T05:04:39.090Z,1005.18
2023-04-03T05:05:39.538Z,1005.32
2023-04-03T05:06:39.037Z,1005.31
2023-04-03T05:07:39.033Z,1005.36
2023-04-03T05:08:39.030Z,1005.29
2023-04-03T05:09:38.995Z,1005.28
2023-04-03T05:10:38.990Z,1005.35
2023-04-03T05:11:38.974Z,1005.29
2023-04-03T05:12:38.982Z,1005.30
2023-04-03T05:13:38.949Z,1005.33
2023-04-03T05:14:38.948Z,1005.28
2023-04-03T05:15:39.453Z,1005.49
2023-04-03T05:16:38.926Z,1005.27
2023-04-03T05:17:38.930Z,1005.40
2023-04-03T05:18:38.916Z,1005.31
2023-04-03T05:19:38.891Z,1005.41
2023-04-03T05:20:38.891Z,1005.31
2023-04-03T05:21:38.889Z,1005.29
2023-04-03T05:22:38.881Z,1005.47
2023-04-03T05:23:38.874Z,1005.45
2023-04-03T05:24:38.864Z,1005.47
2023-04-03T05:25:39.112Z,1005.38
2023-04-03T05:26:38.833Z,1005.40
2023-04-03T05:27:38.826Z,1005.35
2023-04-03T05:28:38.826Z,1005.37
2023-04-03T05:29:38.805Z,1005.45
2023-04-03T05:30:38.798Z,1005.40
2023-04-03T05:31:38.867Z,1005.52
2023-04-03T05:32:38.809Z,1005.47
2023-04-03T05:33:38.772Z,1005.42
2023-04-03T05:34:38.755Z,1005.41
2023-04-03T05:35:39.002Z,1005.42
2023-04-03T05:36:38.740Z,1005.58
2023-04-03T05:37:38.720Z,1005.49
2023-04-03T05:38:38.743Z,1005.45
2023-04-03T05:39:38.708Z,1005.42
2023-04-03T05:40:38.703Z,1005.47
2023-04-03T05:41:38.685Z,1005.45
2023-04-03T05:42:38.686Z,1005.58
2023-04-03T05:43:38.680Z,1005.47
2023-04-03T05:44:38.653Z,1005.53
2023-04-03T05:45:38.658Z,1005.64
2023-04-03T05:46:38.637Z,1005.63
2023-04-03T05:47:38.675Z,1005.60
2023-04-03T05:48:38.625Z,1005.58
2023-04-03T05:49:38.600Z,1005.62
2023-04-03T05:50:38.595Z,1005.53
2023-04-03T05:51:38.585Z,1005.52
2023-04-03T05:52:38.580Z,1005.53
2023-04-03T05:53:38.683Z,1005.53
2023-04-03T05:54:38.556Z,1005.60
2023-04-03T05:55:38.796Z,1005.57
2023-04-03T05:56:38.536Z,1005.59
2023-04-03T05:57:38.638Z,1005.68
2023-04-03T05:58:38.535Z,1005.67
2023-04-03T05:59:38.569Z,1005.55
2023-04-03T06:00:38.556Z,1005.61
2023-04-03T06:01:39.483Z,1005.61
2023-04-03T06:02:38.564Z,1005.67
2023-04-03T06:03:41.541Z,1005.64
2023-04-03T06:04:44.094Z,1005.75
2023-04-03T06:05:38.664Z,1005.66
2023-04-03T06:06:38.557Z,1005.73
2023-04-03T06:07:38.454Z,1005.67
2023-04-03T06:08:38.548Z,1005.65
2023-04-03T06:09:38.459Z,1005.71
2023-04-03T06:10:38.712Z,1005.81
2023-04-03T06:11:38.395Z,1005.75
2023-04-03T06:12:38.375Z,1005.74
2023-04-03T06:13:38.387Z,1005.79
2023-04-03T06:14:38.357Z,1005.74
2023-04-03T06:15:38.354Z,1005.68
2023-04-03T06:16:39.621Z,1005.69
2023-04-03T06:17:38.344Z,1005.68
2023-04-03T06:18:38.343Z,1005.66
2023-04-03T06:19:38.314Z,1005.72
2023-04-03T06:20:38.689Z,1005.75
2023-04-03T06:21:38.289Z,1005.72
2023-04-03T06:22:38.290Z,1005.77
2023-04-03T06:23:38.266Z,1005.77
2023-04-03T06:24:38.253Z,1005.73
2023-04-03T06:25:38.252Z,1005.71
2023-04-03T06:26:38.247Z,1005.75
2023-04-03T06:27:38.226Z,1005.74
2023-04-03T06:28:38.240Z,1005.75
2023-04-03T06:29:38.226Z,1005.79
2023-04-03T06:30:38.475Z,1005.75
2023-04-03T06:31:38.188Z,1005.90
2023-04-03T06:32:38.228Z,1005.81
2023-04-03T06:33:38.176Z,1005.84
2023-04-03T06:34:38.139Z,1005.83
2023-04-03T06:35:38.296Z,1005.90
2023-04-03T06:36:38.128Z,1005.94
2023-04-03T06:37:38.145Z,1005.86
2023-04-03T06:38:38.132Z,1005.96
2023-04-03T06:39:38.193Z,1005.90
2023-04-03T06:40:38.279Z,1005.90
2023-04-03T06:41:38.087Z,1005.94
2023-04-03T06:42:38.060Z,1005.93
2023-04-03T06:43:38.064Z,1005.96
2023-04-03T06:44:38.043Z,1005.94
2023-04-03T06:45:38.191Z,1006.05
2023-04-03T06:46:38.059Z,1005.95
2023-04-03T06:47:38.025Z,1006.13
2023-04-03T06:48:38.031Z,1006.07
2023-04-03T06:49:37.995Z,1006.01
2023-04-03T06:50:37.975Z,1006.00
2023-04-03T06:51:37.968Z,1006.13
2023-04-03T06:52:37.960Z,1006.12
2023-04-03T06:53:37.960Z,1006.14
2023-04-03T06:54:37.939Z,1006.11
2023-04-03T06:55:38.020Z,1006.08
2023-04-03T06:56:37.958Z,1006.12
2023-04-03T06:57:37.939Z,1006.16
2023-04-03T06:58:38.904Z,1006.10
2023-04-03T06:59:37.919Z,1006.15
2023-04-03T07:00:37.881Z,1006.19
2023-04-03T07:01:38.586Z,1006.19
2023-04-03T07:02:38.234Z,1006.23
2023-04-03T07:03:37.862Z,1006.23
2023-04-03T07:04:37.870Z,1006.18
2023-04-03T07:05:37.990Z,1006.27
2023-04-03T07:06:37.819Z,1006.21
2023-04-03T07:07:38.324Z,1006.20
2023-04-03T07:08:37.809Z,1006.23
2023-04-03T07:09:37.781Z,1006.31
2023-04-03T07:10:37.775Z,1006.38
2023-04-03T07:11:37.757Z,1006.34
2023-04-03T07:12:37.746Z,1006.42
2023-04-03T07:13:37.745Z,1006.36
2023-04-03T07:14:37.724Z,1006.39
2023-04-03T07:15:37.851Z,1006.41
2023-04-03T07:16:39.989Z,1006.35
2023-04-03T07:17:37.763Z,1006.40
2023-04-03T07:18:37.694Z,1006.43
2023-04-03T07:19:37.684Z,1006.38
2023-04-03T07:20:37.657Z,1006.49
2023-04-03T07:21:37.651Z,1006.56
2023-04-03T07:22:37.644Z,1006.58
2023-04-03T07:23:37.645Z,1006.52
2023-04-03T07:24:37.647Z,1006.56
2023-04-03T07:25:37.842Z,1006.64
2023-04-03T07:26:37.599Z,1006.55
2023-04-03T07:27:37.590Z,1006.64
2023-04-03T07:28:37.732Z,1006.70
2023-04-03T07:29:37.577Z,1006.70
2023-04-03T07:30:37.575Z,1006.70
2023-04-03T07:31:37.572Z,1006.73
2023-04-03T07:32:37.601Z,1006.67
2023-04-03T07:33:37.537Z,1006.69
2023-04-03T07:34:37.534Z,1006.62
2023-04-03T07:35:37.932Z,1006.66
2023-04-03T07:36:37.497Z,1006.62
2023-04-03T07:37:37.502Z,1006.69
2023-04-03T07:38:37.486Z,1006.69
2023-04-03T07:39:37.468Z,1006.67
2023-04-03T07:40:37.477Z,1006.78
2023-04-03T07:41:37.460Z,1006.72
2023-04-03T07:42:37.461Z,1006.83
2023-04-03T07:43:37.439Z,1006.82
2023-04-03T07:44:37.412Z,1006.79
2023-04-03T07:45:37.726Z,1006.82
2023-04-03T07:46:37.393Z,1006.85
2023-04-03T07:47:37.417Z,1006.83
2023-04-03T07:48:37.393Z,1006.91
2023-04-03T07:49:37.372Z,1006.85
2023-04-03T07:50:37.372Z,1006.91
2023-04-03T07:51:37.345Z,1006.95
2023-04-03T07:52:37.338Z,1006.84
2023-04-03T07:53:37.343Z,1006.91
2023-04-03T07:54:37.323Z,1006.86
2023-04-03T07:55:37.566Z,1006.86
2023-04-03T07:56:37.301Z,1006.87
2023-04-03T07:57:37.329Z,1006.75
2023-04-03T07:58:37.289Z,1006.78
2023-04-03T07:59:37.264Z,1006.80
2023-04-03T08:00:37.332Z,1006.79
2023-04-03T08:01:37.242Z,1006.82
2023-04-03T08:02:37.243Z,1006.88
2023-04-03T08:03:37.289Z,1006.77
2023-04-03T08:04:37.291Z,1006.78
2023-04-03T08:05:37.358Z,1006.75
2023-04-03T08:06:45.998Z,1006.82
2023-04-03T08:07:39.178Z,1006.82
2023-04-03T08:08:37.168Z,1006.78
2023-04-03T08:09:37.168Z,1006.86
2023-04-03T08:10:37.144Z,1006.76
2023-04-03T08:11:37.133Z,1006.77
2023-04-03T08:12:37.124Z,1006.91
2023-04-03T08:13:37.116Z,1006.92
2023-04-03T08:14:37.120Z,1006.88
2023-04-03T08:15:37.181Z,1006.89
2023-04-03T08:16:37.205Z,1006.95
2023-04-03T08:17:37.114Z,1006.96
2023-04-03T08:18:37.057Z,1006.90
2023-04-03T08:19:37.061Z,1006.93
2023-04-03T08:20:37.037Z,1006.86
2023-04-03T08:21:37.038Z,1006.97
2023-04-03T08:22:37.019Z,1006.89
2023-04-03T08:23:37.014Z,1006.83
2023-04-03T08:24:39.194Z,1006.86
2023-04-03T08:25:37.105Z,1006.97
2023-04-03T08:26:36.982Z,1006.91
2023-04-03T08:27:36.976Z,1006.87
2023-04-03T08:28:36.967Z,1006.88
2023-04-03T08:29:36.995Z,1006.87
2023-04-03T08:30:37.062Z,1006.86
2023-04-03T08:31:36.929Z,1006.88
2023-04-03T08:32:37.017Z,1006.94
2023-04-03T08:33:36.910Z,1006.80
2023-04-03T08:34:36.928Z,1006.86
2023-04-03T08:35:38.226Z,1006.87
2023-04-03T08:36:37.880Z,1006.86
2023-04-03T08:37:37.532Z,1006.81
2023-04-03T08:38:36.864Z,1006.88
2023-04-03T08:39:36.858Z,1006.76
2023-04-03T08:40:36.849Z,1006.80
2023-04-03T08:41:36.858Z,1006.81
2023-04-03T08:42:36.848Z,1006.84
2023-04-03T08:43:36.815Z,1006.75
2023-04-03T08:44:37.380Z,1006.80
2023-04-03T08:45:36.974Z,1006.78
2023-04-03T08:46:36.892Z,1006.81
2023-04-03T08:47:36.787Z,1006.83
2023-04-03T08:48:36.847Z,1006.79
2023-04-03T08:49:36.819Z,1006.90
2023-04-03T08:50:36.737Z,1006.83
2023-04-03T08:51:36.729Z,1006.73
2023-04-03T08:52:36.719Z,1006.70
2023-04-03T08:53:36.710Z,1006.68
2023-04-03T08:54:36.716Z,1006.79
2023-04-03T08:55:36.928Z,1006.76
2023-04-03T08:56:36.678Z,1006.83
2023-04-03T08:57:36.797Z,1006.81
2023-04-03T08:58:36.654Z,1006.85
2023-04-03T08:59:36.665Z,1006.84
2023-04-03T09:00:36.649Z,1006.90
2023-04-03T09:01:36.644Z,1006.87
2023-04-03T09:02:36.674Z,1006.82
2023-04-03T09:03:36.659Z,1006.79
2023-04-03T09:04:36.698Z,1006.84
2023-04-03T09:05:36.833Z,1006.73
2023-04-03T09:06:37.300Z,1006.72
2023-04-03T09:07:36.562Z,1006.74
2023-04-03T09:08:36.550Z,1006.75
2023-04-03T09:09:36.594Z,1006.76
2023-04-03T09:10:36.721Z,1006.74
2023-04-03T09:11:36.552Z,1006.76
2023-04-03T09:12:36.526Z,1006.69
2023-04-03T09:13:36.525Z,1006.70
2023-04-03T09:14:36.510Z,1006.75
2023-04-03T09:15:39.515Z,1006.78
2023-04-03T09:16:37.487Z,1006.72
2023-04-03T09:17:36.548Z,1006.80
2023-04-03T09:18:36.463Z,1006.64
2023-04-03T09:19:36.442Z,1006.73
2023-04-03T09:20:36.786Z,1006.72
2023-04-03T09:21:36.430Z,1006.74
2023-04-03T09:22:41.976Z,1006.80
2023-04-03T09:23:38.433Z,1006.83
2023-04-03T09:24:36.410Z,1006.76
2023-04-03T09:25:36.410Z,1006.79
2023-04-03T09:26:36.420Z,1006.80
2023-04-03T09:27:36.400Z,1006.79
2023-04-03T09:28:42.902Z,1006.80
2023-04-03T09:29:38.374Z,1006.83
2023-04-03T09:30:36.534Z,1006.89
2023-04-03T09:31:36.362Z,1006.77
2023-04-03T09:32:36.385Z,1006.87
2023-04-03T09:33:36.342Z,1006.81
2023-04-03T09:34:36.326Z,1006.78
2023-04-03T09:35:47.442Z,1006.78
2023-04-03T09:36:38.386Z,1006.69
2023-04-03T09:37:36.276Z,1006.84
2023-04-03T09:38:36.282Z,1006.65
2023-04-03T09:39:36.262Z,1006.71
2023-04-03T09:40:36.709Z,1006.67
2023-04-03T09:41:36.242Z,1006.81
2023-04-03T09:42:36.859Z,1006.81
2023-04-03T09:43:36.185Z,1006.74
2023-04-03T09:44:36.223Z,1006.68
2023-04-03T09:45:36.215Z,1006.75
2023-04-03T09:46:36.239Z,1006.74
2023-04-03T09:47:36.249Z,1006.74
2023-04-03T09:48:36.181Z,1006.72
2023-04-03T09:49:36.190Z,1006.72
2023-04-03T09:50:36.338Z,1006.70
2023-04-03T09:51:36.166Z,1006.64
2023-04-03T09:52:37.627Z,1006.73
2023-04-03T09:53:37.135Z,1006.73
2023-04-03T09:54:36.140Z,1006.70
2023-04-03T09:55:36.104Z,1006.66
2023-04-03T09:56:36.087Z,1006.79
2023-04-03T09:57:36.117Z,1006.62
2023-04-03T09:58:46.977Z,1006.68
2023-04-03T09:59:38.068Z,1006.66
2023-04-03T10:00:36.295Z,1006.64
2023-04-03T10:01:36.107Z,1006.60
2023-04-03T10:02:36.081Z,1006.63
2023-04-03T10:03:36.011Z,1006.64
2023-04-03T10:04:36.065Z,1006.67
2023-04-03T10:05:36.018Z,1006.61
2023-04-03T10:06:36.036Z,1006.67
2023-04-03T10:07:36.007Z,1006.51
2023-04-03T10:08:36.092Z,1006.59
2023-04-03T10:09:35.947Z,1006.57
2023-04-03T10:10:36.944Z,1006.56
2023-04-03T10:11:35.946Z,1006.58
2023-04-03T10:12:35.920Z,1006.53
2023-04-03T10:13:45.201Z,1006.55
2023-04-03T10:14:37.939Z,1006.58
2023-04-03T10:15:35.929Z,1006.68
2023-04-03T10:16:35.948Z,1006.59
2023-04-03T10:17:35.955Z,1006.58
2023-04-03T10:18:35.920Z,1006.47
2023-04-03T10:19:35.868Z,1006.64
2023-04-03T10:20:35.949Z,1006.49
2023-04-03T10:21:35.855Z,1006.50
2023-04-03T10:22:35.851Z,1006.46
2023-04-03T10:23:35.885Z,1006.53
2023-04-03T10:24:35.906Z,1006.51
2023-04-03T10:25:35.848Z,1006.57
2023-04-03T10:26:35.834Z,1006.56
2023-04-03T10:27:35.800Z,1006.48
2023-04-03T10:28:35.827Z,1006.48
2023-04-03T10:29:35.820Z,1006.53
2023-04-03T10:30:36.064Z,1006.43
2023-04-03T10:31:35.811Z,1006.50
2023-04-03T10:32:35.832Z,1006.50
2023-04-03T10:33:35.722Z,1006.38
2023-04-03T10:34:35.717Z,1006.48
2023-04-03T10:35:35.837Z,1006.43
2023-04-03T10:36:35.707Z,1006.41
2023-04-03T10:37:35.782Z,1006.32
2023-04-03T10:38:35.696Z,1006.36
2023-04-03T10:39:35.734Z,1006.40
2023-04-03T10:40:36.104Z,1006.39
2023-04-03T10:41:35.683Z,1006.35
2023-04-03T10:42:35.640Z,1006.36
2023-04-03T10:43:35.692Z,1006.42
2023-04-03T10:44:35.673Z,1006.50
2023-04-03T10:45:35.660Z,1006.48
2023-04-03T10:46:35.712Z,1006.49
2023-04-03T10:47:37.227Z,1006.43
2023-04-03T10:48:35.597Z,1006.54
2023-04-03T10:49:35.569Z,1006.44
2023-04-03T10:50:35.847Z,1006.42
2023-04-03T10:51:35.563Z,1006.47
2023-04-03T10:52:35.545Z,1006.47
2023-04-03T10:53:35.538Z,1006.55
2023-04-03T10:54:35.531Z,1006.46
2023-04-03T10:55:35.599Z,1006.46
2023-04-03T10:56:35.654Z,1006.46
2023-04-03T10:57:35.586Z,1006.36
2023-04-03T10:58:35.492Z,1006.37
2023-04-03T10:59:35.457Z,1006.46
2023-04-03T11:00:35.770Z,1006.42
2023-04-03T11:01:35.517Z,1006.34
2023-04-03T11:02:35.511Z,1006.53
2023-04-03T11:03:35.583Z,1006.45
2023-04-03T11:04:35.428Z,1006.52
2023-04-03T11:05:35.479Z,1006.33
2023-04-03T11:06:35.435Z,1006.42
2023-04-03T11:07:35.397Z,1006.31
2023-04-03T11:08:35.445Z,1006.19
2023-04-03T11:09:35.387Z,1006.26
2023-04-03T11:10:35.384Z,1006.27
2023-04-03T11:11:35.401Z,1006.10
2023-04-03T11:12:35.433Z,1006.12
2023-04-03T11:13:35.390Z,1006.15
2023-04-03T11:14:35.388Z,1006.15
2023-04-03T11:15:35.355Z,1006.12
2023-04-03T11:16:43.591Z,1006.17
2023-04-03T11:17:37.442Z,1006.17
2023-04-03T11:18:35.281Z,1006.17
2023-04-03T11:19:35.266Z,1006.17
2023-04-03T11:20:35.270Z,1006.20
2023-04-03T11:21:35.287Z,1006.19
2023-04-03T11:22:35.251Z,1006.08
2023-04-03T11:23:46.053Z,1006.22
2023-04-03T11:24:37.262Z,1006.15
2023-04-03T11:25:35.448Z,1006.12
2023-04-03T11:26:35.250Z,1006.10
2023-04-03T11:27:35.180Z,1006.00
2023-04-03T11:28:35.287Z,1005.97
2023-04-03T11:29:35.972Z,1006.03
2023-04-03T11:30:36.198Z,1006.01
2023-04-03T11:31:35.298Z,1006.03
2023-04-03T11:32:35.253Z,1006.09
2023-04-03T11:33:35.221Z,1006.06
2023-04-03T11:34:35.258Z,1006.04
2023-04-03T11:35:35.240Z,1006.06
2023-04-03T11:36:36.911Z,1006.07
2023-04-03T11:37:35.142Z,1006.07
2023-04-03T11:38:35.189Z,1006.06
2023-04-03T11:39:35.192Z,1006.04
2023-04-03T11:40:35.119Z,1005.99
2023-04-03T11:41:35.131Z,1006.07
2023-04-03T11:42:35.229Z,1006.02
2023-04-03T11:43:35.076Z,1006.05
2023-04-03T11:44:35.169Z,1006.05
2023-04-03T11:45:35.102Z,1006.02
2023-04-03T11:46:35.110Z,1006.08
2023-04-03T11:47:35.087Z,1006.08
2023-04-03T11:48:35.066Z,1006.01
2023-04-03T11:49:35.028Z,1006.13
2023-04-03T11:50:35.052Z,1006.05
2023-04-03T11:51:35.119Z,1005.99
2023-04-03T11:52:35.098Z,1005.84
2023-04-03T11:53:35.065Z,1005.80
2023-04-03T11:54:42.124Z,1005.82
2023-04-03T11:55:37.252Z,1005.87
2023-04-03T11:56:34.929Z,1005.86
2023-04-03T11:57:35.006Z,1005.83
2023-04-03T11:58:34.925Z,1005.93
2023-04-03T11:59:34.921Z,1005.97
2023-04-03T12:00:34.968Z,1006.01
2023-04-03T12:01:34.925Z,1005.92
2023-04-03T12:02:41.156Z,1006.00
2023-04-03T12:03:35.968Z,1005.90
2023-04-03T12:04:34.891Z,1005.86
2023-04-03T12:05:34.862Z,1005.90